Flight Track Log - Related Links

Times and Time Zones

All times are in EDT time to prevent confusion due to time zone crossing. See the N8136R flight status page for this flight to view local times or setup timezone preferences in your user account.

Time Position Orientation Groundspeed Altitude Reporting Facility
EDT Latitude Longitude Course Direction KTS MPH feet Rate Location/Type
Fri 02:32:01 PM 34.7136 -92.2469 261° West 119 137 600  Level Memphis Center
Fri 02:32:56 PM 34.7089 -92.2847 261° West 135 155 1,500 931 Climbing Memphis Center
Fri 02:33:57 PM 34.7378 -92.3006 336° Northwest 127 146 2,400 793 Climbing Memphis Center
Fri 02:34:57 PM 34.7750 -92.3167 340° North 139 160 3,100 694 Climbing Memphis Center
Fri 02:35:58 PM 34.8125 -92.3325 341° North 139 160 3,800 446 Climbing Memphis Center
Fri 02:36:58 PM 34.8497 -92.3436 346° North 146 168 4,000 94 Climbing Memphis Center
Fri 02:38:05 PM 34.9036 -92.3675 340° North 175 201 4,000  Level Memphis Center
Fri 02:39:06 PM 34.9450 -92.3914 335° Northwest 178 205 4,000  Level Memphis Center
Fri 02:40:06 PM 34.9903 -92.4178 334° Northwest 172 198 4,000  Level Memphis Center
Fri 02:41:07 PM 35.0339 -92.4442 334° Northwest 169 194 4,000  Level Memphis Center
Fri 02:42:08 PM 35.0731 -92.4681 333° Northwest 166 191 4,000  Level Memphis Center
Fri 02:43:09 PM 35.1186 -92.4919 337° Northwest 167 192 4,000  Level Memphis Center
Fri 02:43:32 PM 35.1392 -92.5003 342° North 166 191 4,000  Level Memphis Center
Fri 02:44:32 PM 35.1786 -92.5214 336° Northwest 176 203 4,000  Level Memphis Center
Fri 02:45:32 PM 35.2219 -92.5481 333° Northwest 170 196 4,000  Level Memphis Center
Fri 02:46:32 PM 35.2631 -92.5719 335° Northwest 170 196 4,000  Level Memphis Center
Fri 02:47:32 PM 35.3064 -92.5961 336° Northwest 170 196 4,000  Level Memphis Center
Fri 02:48:32 PM 35.3497 -92.6228 333° Northwest 170 196 4,000  Level Memphis Center
Fri 02:49:32 PM 35.3931 -92.6494 333° Northwest 170 196 4,000  Level Memphis Center
Fri 02:50:32 PM 35.4411 -92.6558 354° North 170 196 4,000  Level Memphis Center
Fri 02:51:32 PM 35.4872 -92.6342 21° North 159 183 4,000  Level Memphis Center
Fri 02:52:32 PM 35.5353 -92.6278 North 159 183 4,000  Level Memphis Center
Fri 02:53:32 PM 35.5792 -92.6314 356° North 159 183 4,000  Level Memphis Center
Fri 02:54:32 PM 35.6269 -92.6406 351° North 159 183 4,000  Level Memphis Center
Fri 02:55:32 PM 35.6703 -92.6594 341° North 165 190 4,000  Level Memphis Center
Fri 02:56:32 PM 35.7072 -92.6911 325° Northwest 165 190 4,000  Level Memphis Center
Fri 02:57:32 PM 35.7483 -92.7231 328° Northwest 165 190 4,000 50 Level Memphis Center
Fri 02:58:32 PM 35.7853 -92.7547 325° Northwest 165 190 4,100 50 Climbing Memphis Center
Fri 02:59:32 PM 35.8244 -92.7867 327° Northwest 171 197 4,100  Level Memphis Center
Fri 03:00:32 PM 35.8614 -92.8186 325° Northwest 171 197 4,100  Level Memphis Center
Fri 03:01:32 PM 35.9003 -92.8503 327° Northwest 171 197 4,100  Level Memphis Center
Fri 03:02:32 PM 35.9372 -92.8822 325° Northwest 171 197 4,100  Level Memphis Center
Fri 03:03:32 PM 35.9761 -92.9167 324° Northwest 171 197 4,100  Level Memphis Center
Fri 03:04:32 PM 36.0150 -92.9489 326° Northwest 171 197 4,100  Level Memphis Center
Fri 03:05:32 PM 36.0519 -92.9808 325° Northwest 171 197 4,100  Level Memphis Center
Fri 03:06:32 PM 36.0886 -93.0153 323° Northwest 171 197 4,100 -200 Level Memphis Center
Fri 03:07:32 PM 36.1278 -93.0450 328° Northwest 171 197 3,700 -250 Descending Memphis Center
Fri 03:08:32 PM 36.1603 -93.0742 324° Northwest 171 197 3,600 -100 Descending Memphis Center

Login

Don't have an account? Register now (free) for customized features, flight alerts, and more!